createdAt,value
2018-12-21T00:02:58.263Z,1003.13
2018-12-21T00:03:38.725Z,1003.1
2018-12-21T00:04:19.200Z,1003.09
2018-12-21T00:04:59.547Z,1003.06
2018-12-21T00:05:39.960Z,1003.07
2018-12-21T00:06:20.337Z,1003.02
2018-12-21T00:07:02.667Z,1003.02
2018-12-21T00:07:43.012Z,1002.98
2018-12-21T00:08:23.422Z,1002.96
2018-12-21T00:10:41.339Z,1002.94
2018-12-21T00:11:21.555Z,1002.91
2018-12-21T00:12:01.971Z,1002.9
2018-12-21T00:12:42.316Z,1002.93
2018-12-21T00:13:24.320Z,1002.82
2018-12-21T00:14:04.737Z,1002.83
2018-12-21T00:14:46.936Z,1002.82
2018-12-21T00:15:37.292Z,1002.76
2018-12-21T00:16:17.694Z,1002.8
2018-12-21T00:16:59.855Z,1002.79
2018-12-21T00:17:40.287Z,1002.75
2018-12-21T00:18:22.317Z,1002.77
2018-12-21T00:19:02.749Z,1002.77
2018-12-21T00:19:43.140Z,1002.78
2018-12-21T00:20:23.508Z,1002.76
2018-12-21T00:21:21.869Z,1002.77
2018-12-21T00:22:01.408Z,1002.77
2018-12-21T00:22:41.803Z,1002.72
2018-12-21T00:23:22.226Z,1002.75
2018-12-21T00:24:02.610Z,1002.77
2018-12-21T00:24:43.046Z,1002.74
2018-12-21T00:25:23.371Z,1002.72
2018-12-21T00:26:03.829Z,1002.74
2018-12-21T00:26:44.203Z,1002.72
2018-12-21T00:27:24.587Z,1002.69
2018-12-21T00:28:05.008Z,1002.63
2018-12-21T00:28:45.398Z,1002.64
2018-12-21T00:29:25.779Z,1002.62
2018-12-21T00:30:06.295Z,1002.64
2018-12-21T00:30:46.592Z,1002.57
2018-12-21T00:31:27.005Z,1002.6
2018-12-21T00:32:07.414Z,1002.6
2018-12-21T00:32:47.759Z,1002.55
2018-12-21T00:33:28.184Z,1002.5
2018-12-21T00:34:08.538Z,1002.54
2018-12-21T00:34:48.932Z,1002.56
2018-12-21T00:35:29.430Z,1002.5
2018-12-21T00:36:09.833Z,1002.57
2018-12-21T00:36:50.386Z,1002.53
2018-12-21T00:37:30.634Z,1002.64
2018-12-21T00:38:10.994Z,1002.59
2018-12-21T00:38:51.516Z,1002.55
2018-12-21T00:39:31.801Z,1002.57
2018-12-21T00:40:13.124Z,1002.59
2018-12-21T00:40:53.527Z,1002.58
2018-12-21T00:41:33.902Z,1002.61
2018-12-21T00:42:14.302Z,1002.69
2018-12-21T00:42:54.750Z,1002.66
2018-12-21T00:43:36.635Z,1002.7
2018-12-21T00:44:17.058Z,1002.65
2018-12-21T00:44:57.419Z,1002.59
2018-12-21T00:45:37.815Z,1002.52
2018-12-21T00:46:18.241Z,1002.49
2018-12-21T00:46:58.584Z,1002.47
2018-12-21T00:47:39.056Z,1002.52
2018-12-21T00:48:19.416Z,1002.47
2018-12-21T00:48:59.987Z,1002.48
2018-12-21T00:49:40.351Z,1002.45
2018-12-21T00:50:20.653Z,1002.46
2018-12-21T00:51:01.046Z,1002.45
2018-12-21T00:51:41.467Z,1002.46
2018-12-21T00:52:21.826Z,1002.47
2018-12-21T00:53:02.220Z,1002.44
2018-12-21T00:53:42.645Z,1002.45
2018-12-21T00:54:22.989Z,1002.46
2018-12-21T00:55:03.406Z,1002.49
2018-12-21T00:55:43.793Z,1002.47
2018-12-21T00:56:24.235Z,1002.53
2018-12-21T00:57:04.666Z,1002.45
2018-12-21T00:57:45.099Z,1002.47
2018-12-21T00:58:26.477Z,1002.43
2018-12-21T00:59:08.667Z,1002.45
2018-12-21T00:59:52.636Z,1002.4
2018-12-21T01:00:33.072Z,1002.4
2018-12-21T01:01:13.507Z,1002.4
2018-12-21T01:01:53.896Z,1002.36
2018-12-21T01:02:34.332Z,1002.36
2018-12-21T01:03:16.243Z,1002.37
2018-12-21T01:03:56.967Z,1002.39
2018-12-21T01:04:37.832Z,1002.3
2018-12-21T01:05:18.226Z,1002.33
2018-12-21T01:05:58.630Z,1002.32
2018-12-21T01:06:38.998Z,1002.28
2018-12-21T01:07:19.381Z,1002.27
2018-12-21T01:07:59.792Z,1002.25
2018-12-21T01:08:40.262Z,1002.31
2018-12-21T01:09:23.916Z,1002.31
2018-12-21T01:10:04.281Z,1002.31
2018-12-21T01:10:44.722Z,1002.29
2018-12-21T01:11:25.193Z,1002.31
2018-12-21T01:12:05.654Z,1002.22
2018-12-21T01:12:46.020Z,1002.23
2018-12-21T01:13:26.538Z,1002.24
2018-12-21T01:14:06.886Z,1002.24
2018-12-21T01:14:47.304Z,1002.2
2018-12-21T01:15:30.314Z,1002.23
2018-12-21T01:16:10.715Z,1002.19
2018-12-21T01:16:51.078Z,1002.2
2018-12-21T01:17:33.429Z,1002.17
2018-12-21T01:18:15.715Z,1002.18
2018-12-21T01:18:59.638Z,1002.13
2018-12-21T01:19:40.995Z,1002.13
2018-12-21T01:20:21.389Z,1002.15
2018-12-21T01:21:06.150Z,1002.15
2018-12-21T01:21:46.554Z,1002.11
2018-12-21T01:22:26.953Z,1002.14
2018-12-21T01:23:07.294Z,1002.14
2018-12-21T01:23:47.703Z,1002.11
2018-12-21T01:24:28.101Z,1002.09
2018-12-21T01:25:09.741Z,1002.08
2018-12-21T01:25:49.822Z,1002.09
2018-12-21T01:26:30.208Z,1002.06
2018-12-21T01:27:10.630Z,1002.01
2018-12-21T01:27:51.016Z,1002.03
2018-12-21T01:28:31.463Z,1002.03
2018-12-21T01:29:11.862Z,1002
2018-12-21T01:29:52.605Z,1002.03
2018-12-21T01:30:32.957Z,1001.99
2018-12-21T01:31:13.336Z,1002
2018-12-21T01:31:54.733Z,1001.96
2018-12-21T01:32:39.076Z,1001.95
2018-12-21T01:33:19.434Z,1002.03
2018-12-21T01:33:59.784Z,1001.97
2018-12-21T01:34:40.156Z,1001.91
2018-12-21T01:35:20.689Z,1001.95
2018-12-21T01:36:01.144Z,1001.89
2018-12-21T01:36:41.559Z,1001.93
2018-12-21T01:37:21.926Z,1001.91
2018-12-21T01:38:02.275Z,1001.87
2018-12-21T01:38:42.703Z,1001.87
2018-12-21T01:39:23.963Z,1001.9
2018-12-21T01:40:04.380Z,1001.84
2018-12-21T01:40:45.788Z,1001.86
2018-12-21T01:41:27.857Z,1001.87
2018-12-21T01:42:08.245Z,1001.82
2018-12-21T01:42:49.602Z,1001.88
2018-12-21T01:43:29.944Z,1001.76
2018-12-21T01:44:12.294Z,1001.85
2018-12-21T01:49:44.605Z,1001.78
2018-12-21T01:50:25.010Z,1001.79
2018-12-21T01:51:05.377Z,1001.77
2018-12-21T01:51:47.151Z,1001.71
2018-12-21T01:52:26.146Z,1001.8
2018-12-21T01:53:06.536Z,1001.71
2018-12-21T01:53:46.906Z,1001.72
2018-12-21T01:54:27.320Z,1001.7
2018-12-21T01:55:08.632Z,1001.71
2018-12-21T01:55:49.022Z,1001.67
2018-12-21T01:56:30.191Z,1001.65
2018-12-21T01:57:11.551Z,1001.66
2018-12-21T01:57:52.051Z,1001.67
2018-12-21T01:58:32.474Z,1001.65
2018-12-21T01:59:12.907Z,1001.64
2018-12-21T01:59:53.277Z,1001.54
2018-12-21T02:00:33.683Z,1001.58
2018-12-21T02:01:14.049Z,1001.59
2018-12-21T02:01:54.419Z,1001.56
2018-12-21T02:02:34.899Z,1001.59
2018-12-21T02:03:15.188Z,1001.54
2018-12-21T02:03:55.568Z,1001.47
2018-12-21T02:04:38.755Z,1001.5
2018-12-21T02:05:19.321Z,1001.5
2018-12-21T02:05:59.662Z,1001.42
2018-12-21T02:06:40.081Z,1001.4
2018-12-21T02:07:20.670Z,1001.36
2018-12-21T02:08:01.042Z,1001.38
2018-12-21T02:08:43.284Z,1001.38
2018-12-21T02:09:23.690Z,1001.33
2018-12-21T02:10:04.093Z,1001.35
2018-12-21T02:10:44.521Z,1001.36
2018-12-21T02:11:24.892Z,1001.35
2018-12-21T02:12:05.271Z,1001.38
2018-12-21T02:12:45.717Z,1001.38
2018-12-21T02:13:26.785Z,1001.34
2018-12-21T02:14:07.232Z,1001.35
2018-12-21T02:14:47.617Z,1001.32
2018-12-21T02:15:27.955Z,1001.28
2018-12-21T02:16:09.337Z,1001.28
2018-12-21T02:16:49.678Z,1001.32
2018-12-21T02:17:34.572Z,1001.31
2018-12-21T02:18:15.002Z,1001.27
2018-12-21T02:18:58.326Z,1001.24
2018-12-21T02:19:40.697Z,1001.24
2018-12-21T02:20:21.156Z,1001.22
2018-12-21T02:21:03.383Z,1001.16
2018-12-21T02:21:43.756Z,1001.23
2018-12-21T02:22:24.190Z,1001.16
2018-12-21T02:23:04.555Z,1001.13
2018-12-21T02:23:45.084Z,1001.15
2018-12-21T02:24:25.432Z,1001.14
2018-12-21T02:25:06.109Z,1001.08
2018-12-21T02:25:47.621Z,1001.09
2018-12-21T02:26:27.877Z,1001.01
2018-12-21T02:27:08.252Z,1001.01
2018-12-21T02:27:48.725Z,1000.98
2018-12-21T02:28:29.966Z,1000.97
2018-12-21T02:29:10.399Z,1000.94
2018-12-21T02:29:50.859Z,1000.92
2018-12-21T02:30:31.301Z,1000.88
2018-12-21T02:31:11.680Z,1000.84
2018-12-21T02:31:53.165Z,1000.86
2018-12-21T02:32:33.574Z,1000.87
2018-12-21T02:33:13.974Z,1000.83
2018-12-21T02:33:54.382Z,1000.81
2018-12-21T02:34:34.843Z,1000.78
2018-12-21T02:35:15.522Z,1000.73
2018-12-21T02:35:55.987Z,1000.73
2018-12-21T02:36:36.370Z,1000.68
2018-12-21T02:37:16.771Z,1000.66
2018-12-21T02:39:30.400Z,1000.6
2018-12-21T02:40:10.226Z,1000.58
2018-12-21T02:40:52.460Z,1000.59
2018-12-21T02:41:33.793Z,1000.58
2018-12-21T02:42:15.104Z,1000.59
2018-12-21T02:42:55.499Z,1000.6
2018-12-21T02:43:35.931Z,1000.55
2018-12-21T02:44:16.624Z,1000.56
2018-12-21T02:44:56.839Z,1000.53
2018-12-21T02:45:37.244Z,1000.51
2018-12-21T02:46:17.862Z,1000.51
2018-12-21T02:46:58.043Z,1000.47
2018-12-21T02:47:40.267Z,1000.47
2018-12-21T02:48:20.673Z,1000.5
2018-12-21T02:49:01.015Z,1000.43
2018-12-21T02:49:41.405Z,1000.38
2018-12-21T02:50:21.852Z,1000.38
2018-12-21T02:51:02.360Z,1000.39
2018-12-21T02:51:44.666Z,1000.34
2018-12-21T02:52:25.022Z,1000.32
2018-12-21T02:53:06.960Z,1000.34
2018-12-21T02:53:47.389Z,1000.38
2018-12-21T02:54:28.099Z,1000.33
2018-12-21T02:55:08.505Z,1000.27
2018-12-21T02:55:49.008Z,1000.36
2018-12-21T02:56:29.283Z,1000.27
2018-12-21T02:57:09.742Z,1000.33
2018-12-21T02:57:50.122Z,1000.41
2018-12-21T02:58:30.548Z,1000.37
2018-12-21T02:59:10.991Z,1000.31
2018-12-21T02:59:52.467Z,1000.36
2018-12-21T03:00:32.833Z,1000.31
2018-12-21T03:04:43.874Z,1000.27
2018-12-21T03:05:28.726Z,1000.25
2018-12-21T03:06:09.152Z,1000.17
2018-12-21T03:06:50.700Z,1000.28
2018-12-21T03:07:30.954Z,1000.26
2018-12-21T03:08:12.337Z,1000.18
2018-12-21T03:08:52.748Z,1000.19
2018-12-21T03:09:33.166Z,1000.19
2018-12-21T03:10:13.658Z,1000.15
2018-12-21T03:10:53.985Z,1000.14
2018-12-21T03:11:35.026Z,1000.1
2018-12-21T03:12:14.754Z,1000.1
2018-12-21T03:12:55.492Z,1000.12
2018-12-21T03:13:36.247Z,1000.1
2018-12-21T03:14:16.822Z,1000.18
2018-12-21T03:14:58.385Z,1000.14
2018-12-21T03:15:38.778Z,1000.09
2018-12-21T03:16:19.724Z,1000.1
2018-12-21T03:17:00.215Z,1000.01
2018-12-21T03:17:40.565Z,1000.09
2018-12-21T03:18:20.999Z,1000.05
2018-12-21T03:19:01.380Z,999.96
2018-12-21T03:19:43.472Z,1000.04
2018-12-21T03:20:23.835Z,999.94
2018-12-21T03:21:04.267Z,999.88
2018-12-21T03:21:44.651Z,999.89
2018-12-21T03:22:26.864Z,999.81
2018-12-21T03:23:07.420Z,999.79
2018-12-21T03:23:47.907Z,999.79
2018-12-21T03:24:28.383Z,999.76
2018-12-21T03:25:09.108Z,999.79
2018-12-21T03:25:49.471Z,999.8
2018-12-21T03:26:29.894Z,999.67
2018-12-21T03:27:10.246Z,999.73
2018-12-21T03:27:53.824Z,999.66
2018-12-21T03:28:35.974Z,999.65
2018-12-21T03:29:16.395Z,999.65
2018-12-21T03:29:56.756Z,999.73
2018-12-21T03:30:37.389Z,999.61
2018-12-21T03:31:19.375Z,999.62
2018-12-21T03:31:59.782Z,999.57
2018-12-21T03:32:40.314Z,999.56
2018-12-21T03:33:22.490Z,999.49
2018-12-21T03:34:04.418Z,999.53
2018-12-21T03:34:44.864Z,999.49
2018-12-21T03:35:25.233Z,999.52
2018-12-21T03:36:06.028Z,999.49
2018-12-21T03:36:46.165Z,999.49
2018-12-21T03:37:26.560Z,999.38
2018-12-21T03:38:07.103Z,999.34
2018-12-21T03:38:48.889Z,999.36
2018-12-21T03:39:29.039Z,999.31
2018-12-21T03:40:10.498Z,999.28
2018-12-21T03:40:51.790Z,999.33
2018-12-21T03:41:33.153Z,999.4
2018-12-21T03:42:14.051Z,999.3
2018-12-21T03:42:54.440Z,999.23
2018-12-21T03:43:34.803Z,999.24
2018-12-21T03:44:15.186Z,999.18
2018-12-21T03:44:55.592Z,999.17
2018-12-21T03:45:37.746Z,999.18
2018-12-21T03:46:18.130Z,999.12
2018-12-21T03:46:58.505Z,999.14
2018-12-21T03:47:39.899Z,999.25
2018-12-21T03:48:20.314Z,999.14
2018-12-21T03:49:01.613Z,999.11
2018-12-21T04:08:22.503Z,998.65
2018-12-21T04:09:02.975Z,998.65
2018-12-21T04:09:43.573Z,998.73
2018-12-21T04:10:24.038Z,998.65
2018-12-21T04:11:06.317Z,998.64
2018-12-21T04:11:46.855Z,998.68
2018-12-21T04:12:27.221Z,998.65
2018-12-21T04:13:18.828Z,998.59
2018-12-21T04:14:01.344Z,998.55
2018-12-21T04:14:41.884Z,998.43
2018-12-21T04:15:22.266Z,998.46
2018-12-21T04:16:06.685Z,998.43
2018-12-21T04:16:46.895Z,998.43
2018-12-21T04:17:27.302Z,998.38
2018-12-21T04:18:07.723Z,998.4
2018-12-21T04:18:48.238Z,998.33
2018-12-21T04:19:30.328Z,998.3
2018-12-21T04:20:13.599Z,998.2
2018-12-21T04:20:53.748Z,998.16
2018-12-21T04:21:34.120Z,998.15
2018-12-21T04:22:14.665Z,998.15
2018-12-21T04:22:54.971Z,998.08
2018-12-21T04:23:35.349Z,998.1
2018-12-21T04:24:15.737Z,998.13
2018-12-21T04:24:57.064Z,998.08
2018-12-21T04:25:37.484Z,998.13
2018-12-21T04:26:18.009Z,998.2
2018-12-21T04:26:58.639Z,998.06
2018-12-21T04:27:40.745Z,998.03
2018-12-21T04:28:21.445Z,998.22
2018-12-21T05:12:51.166Z,997.02
2018-12-21T05:13:31.920Z,996.98
2018-12-21T05:14:12.290Z,997.05
2018-12-21T05:14:52.641Z,996.99
2018-12-21T05:15:33.065Z,996.98
2018-12-21T05:16:15.040Z,996.95
2018-12-21T05:16:55.197Z,996.92
2018-12-21T05:17:35.562Z,997.02
2018-12-21T05:18:17.565Z,996.88
2018-12-21T05:18:57.982Z,996.86
2018-12-21T05:19:38.482Z,996.79
2018-12-21T05:20:21.520Z,996.82
2018-12-21T05:21:01.907Z,996.81
2018-12-21T05:21:44.020Z,996.76
2018-12-21T05:22:24.461Z,996.76
2018-12-21T05:23:04.880Z,996.64
2018-12-21T05:23:47.064Z,996.62
2018-12-21T05:24:29.697Z,996.6
2018-12-21T05:25:10.200Z,996.59
2018-12-21T05:25:51.958Z,996.72
2018-12-21T05:26:32.353Z,996.69
2018-12-21T05:27:12.815Z,996.67
2018-12-21T05:27:57.050Z,996.66
2018-12-21T05:28:37.523Z,996.71
2018-12-21T05:29:17.898Z,996.59
2018-12-21T05:29:58.260Z,996.59
2018-12-21T05:30:38.692Z,996.59
2018-12-21T05:31:28.167Z,996.52
2018-12-21T05:32:01.628Z,996.44
2018-12-21T05:37:52.360Z,996.45
2018-12-21T05:38:47.864Z,996.34
2018-12-21T05:39:41.991Z,996.25
2018-12-21T05:40:34.670Z,996.3
2018-12-21T05:41:26.628Z,996.25
2018-12-21T05:42:20.717Z,996.18
2018-12-21T05:43:13.045Z,996.24
2018-12-21T05:44:05.820Z,996.19
2018-12-21T05:45:10.799Z,996.17
2018-12-21T05:46:08.697Z,996.06
2018-12-21T05:47:01.126Z,996.18
2018-12-21T05:48:06.486Z,996.01
2018-12-21T05:49:03.363Z,995.99
2018-12-21T05:49:57.355Z,995.98
2018-12-21T05:50:57.604Z,995.94
2018-12-21T05:51:51.953Z,995.87
2018-12-21T05:53:00.573Z,995.8
2018-12-21T05:53:51.303Z,995.83
2018-12-21T05:56:12.195Z,995.76
2018-12-21T05:57:09.468Z,995.72
2018-12-21T05:58:02.871Z,995.68
2018-12-21T05:59:06.270Z,995.75
2018-12-21T06:00:15.572Z,995.84
2018-12-21T06:01:12.274Z,995.67
2018-12-21T06:02:09.753Z,995.58
2018-12-21T06:06:20.451Z,995.57
2018-12-21T06:07:00.691Z,995.56
2018-12-21T06:07:41.066Z,995.65
2018-12-21T06:08:21.468Z,995.57
2018-12-21T06:09:04.100Z,995.45
2018-12-21T06:09:44.508Z,995.5
2018-12-21T06:10:24.985Z,995.45
2018-12-21T06:11:05.482Z,995.52
2018-12-21T06:11:45.864Z,995.59
2018-12-21T06:12:26.224Z,995.62
2018-12-21T06:13:06.632Z,995.62
2018-12-21T06:13:48.896Z,995.59
2018-12-21T06:14:30.998Z,995.43
2018-12-21T06:15:12.308Z,995.25
2018-12-21T06:15:52.661Z,995.41
2018-12-21T06:16:35.021Z,995.55
2018-12-21T06:17:19.291Z,995.43
2018-12-21T06:18:01.301Z,995.6
2018-12-21T06:18:41.673Z,995.58
2018-12-21T06:19:22.102Z,995.49
2018-12-21T06:20:02.621Z,995.4
2018-12-21T06:20:42.971Z,995.42
2018-12-21T06:21:23.352Z,995.36
2018-12-21T06:22:03.763Z,995.37
2018-12-21T06:22:44.284Z,995.39
2018-12-21T06:23:24.833Z,995.39
2018-12-21T06:24:05.222Z,995.6
2018-12-21T06:24:45.611Z,995.32
2018-12-21T06:25:26.052Z,995.34
2018-12-21T06:26:08.105Z,995.3
2018-12-21T06:26:48.424Z,995.28
2018-12-21T06:27:28.911Z,995.37
2018-12-21T06:28:11.933Z,995.27
2018-12-21T06:28:52.464Z,995.38
2018-12-21T06:29:33.110Z,995.24
2018-12-21T06:30:14.472Z,995.25
2018-12-21T06:30:54.913Z,995.49
2018-12-21T06:31:35.336Z,995.26
2018-12-21T06:32:15.882Z,995.3
2018-12-21T06:32:57.161Z,995.2
2018-12-21T06:33:39.341Z,995.18
2018-12-21T06:34:19.745Z,995.24
2018-12-21T06:35:01.135Z,995.2
2018-12-21T06:35:41.543Z,995.19
2018-12-21T06:36:22.053Z,995.12
2018-12-21T06:37:06.319Z,995.17
2018-12-21T06:37:48.557Z,995.06
2018-12-21T06:38:27.131Z,995.15
2018-12-21T06:39:09.373Z,995.05
2018-12-21T06:39:49.765Z,995.12
2018-12-21T06:40:30.148Z,995.11
2018-12-21T06:41:10.630Z,995.04
2018-12-21T06:41:51.414Z,995.15
2018-12-21T06:42:31.972Z,994.99
2018-12-21T06:43:13.242Z,994.93
2018-12-21T06:43:54.260Z,994.99
2018-12-21T06:44:35.430Z,994.99
2018-12-21T06:45:15.835Z,994.97
2018-12-21T06:45:58.208Z,994.95
2018-12-21T06:46:40.563Z,995
2018-12-21T06:47:21.028Z,994.95
2018-12-21T06:48:01.949Z,994.9
2018-12-21T06:48:47.410Z,995.01
2018-12-21T06:49:28.581Z,994.87
2018-12-21T06:50:13.470Z,994.81
2018-12-21T06:50:57.492Z,994.85
2018-12-21T06:51:40.069Z,994.81
2018-12-21T06:52:20.323Z,994.78
2018-12-21T06:53:02.661Z,994.8
2018-12-21T06:53:44.674Z,994.7
2018-12-21T06:54:25.901Z,994.72
2018-12-21T06:55:06.203Z,994.68
2018-12-21T06:55:48.493Z,994.71
2018-12-21T06:56:31.489Z,994.91
2018-12-21T06:59:55.929Z,994.65
2018-12-21T07:00:49.721Z,994.6
2018-12-21T07:05:35.037Z,994.71
2018-12-21T07:08:47.014Z,994.58
2018-12-21T07:09:43.839Z,994.64
2018-12-21T07:14:23.359Z,994.5
2018-12-21T07:15:05.351Z,994.61
2018-12-21T07:15:45.755Z,994.45
2018-12-21T07:16:27.092Z,994.47
2018-12-21T07:17:09.549Z,994.47
2018-12-21T07:17:50.855Z,994.45
2018-12-21T07:18:31.298Z,994.49
2018-12-21T07:19:13.896Z,994.48
2018-12-21T07:19:54.390Z,994.42
2018-12-21T07:20:36.706Z,994.4
2018-12-21T07:21:19.012Z,994.46
2018-12-21T07:22:00.679Z,994.31
2018-12-21T07:22:42.605Z,994.28
2018-12-21T07:23:27.189Z,994.36
2018-12-21T07:24:06.037Z,994.33
2018-12-21T07:24:46.773Z,994.34
2018-12-21T07:25:28.842Z,994.3
2018-12-21T07:26:15.016Z,994.3
2018-12-21T07:26:58.308Z,994.25
2018-12-21T07:27:38.790Z,994.27
2018-12-21T07:28:19.325Z,994.16
2018-12-21T07:28:59.745Z,994.12
2018-12-21T07:29:41.072Z,994.12
2018-12-21T07:30:21.511Z,994.07
2018-12-21T07:31:04.973Z,994.13
2018-12-21T07:31:48.137Z,994.04
2018-12-21T07:32:28.603Z,994.04
2018-12-21T07:33:09.804Z,994.08
2018-12-21T07:33:50.452Z,993.98
2018-12-21T07:34:30.874Z,994.13
2018-12-21T07:35:11.266Z,994.03
2018-12-21T07:39:32.127Z,993.9
2018-12-21T07:40:28.073Z,993.95
2018-12-21T07:41:23.116Z,993.86
2018-12-21T07:42:21.406Z,993.83
2018-12-21T07:43:26.730Z,993.93
2018-12-21T07:44:32.132Z,993.83
2018-12-21T07:45:34.802Z,993.91
2018-12-21T07:46:34.705Z,993.84
2018-12-21T07:47:39.513Z,993.78
2018-12-21T07:48:34.187Z,993.76
2018-12-21T07:49:34.179Z,993.71
2018-12-21T07:50:31.376Z,993.71
2018-12-21T07:51:31.270Z,993.65
2018-12-21T07:52:33.807Z,993.64
2018-12-21T07:53:35.647Z,993.65
2018-12-21T07:59:09.705Z,993.5
2018-12-21T08:00:16.333Z,993.43
2018-12-21T08:01:24.489Z,993.35
2018-12-21T08:02:21.030Z,993.3
2018-12-21T08:03:18.877Z,993.15
2018-12-21T08:04:18.199Z,993.13
2018-12-21T08:05:14.034Z,993.09
2018-12-21T08:06:08.805Z,992.99
2018-12-21T08:07:08.740Z,992.95
2018-12-21T08:08:05.474Z,992.91
2018-12-21T08:09:05.138Z,992.85
2018-12-21T08:10:13.129Z,992.71
2018-12-21T08:11:19.831Z,992.68
2018-12-21T08:12:36.951Z,992.54
2018-12-21T08:15:11.293Z,992.5
2018-12-21T08:15:51.809Z,992.48
2018-12-21T08:16:33.487Z,992.52
2018-12-21T08:17:13.316Z,992.37
2018-12-21T08:17:54.265Z,992.44
2018-12-21T08:18:34.949Z,992.45
2018-12-21T08:19:15.400Z,992.39
2018-12-21T08:19:55.794Z,992.39
2018-12-21T08:20:36.194Z,992.6
2018-12-21T08:21:16.738Z,992.62
2018-12-21T08:21:57.897Z,992.49
2018-12-21T08:22:39.466Z,992.35
2018-12-21T08:23:19.970Z,992.44
2018-12-21T08:23:59.918Z,992.54
2018-12-21T08:24:41.464Z,992.5
2018-12-21T08:25:22.336Z,992.47
2018-12-21T08:26:03.467Z,992.41
2018-12-21T08:26:43.981Z,992.38
2018-12-21T08:27:24.166Z,992.36
2018-12-21T08:28:05.489Z,992.44
2018-12-21T08:28:45.953Z,992.45
2018-12-21T08:29:27.214Z,992.52
2018-12-21T08:30:07.652Z,992.44
2018-12-21T08:30:48.951Z,992.46
2018-12-21T08:31:29.301Z,992.49
2018-12-21T08:32:09.750Z,992.38
2018-12-21T08:32:51.999Z,992.3
2018-12-21T08:33:32.814Z,992.31
2018-12-21T08:34:13.139Z,992.38
2018-12-21T08:34:54.462Z,992.35
2018-12-21T08:35:34.352Z,992.39
2018-12-21T08:36:14.759Z,992.46
2018-12-21T08:36:55.965Z,992.45
2018-12-21T08:37:35.745Z,992.48
2018-12-21T08:38:16.255Z,992.39
2018-12-21T08:38:57.584Z,992.37
2018-12-21T08:39:38.071Z,992.36
2018-12-21T08:40:18.483Z,992.35
2018-12-21T08:41:00.144Z,992.34
2018-12-21T08:41:41.578Z,992.34
2018-12-21T08:42:22.328Z,992.32
2018-12-21T08:43:02.707Z,992.34
2018-12-21T08:43:43.191Z,992.25
2018-12-21T08:44:23.625Z,992.3
2018-12-21T08:45:04.060Z,992.25
2018-12-21T08:45:44.434Z,992.2
2018-12-21T08:46:25.183Z,992.22
2018-12-21T08:47:06.168Z,992.16
2018-12-21T08:47:46.487Z,992.18
2018-12-21T08:48:27.331Z,992.12
2018-12-21T08:50:41.486Z,991.94
2018-12-21T08:51:21.959Z,992.13
2018-12-21T08:52:02.435Z,992.16
2018-12-21T08:52:42.840Z,992.1
2018-12-21T08:53:23.286Z,992.09
2018-12-21T08:54:03.661Z,992.14
2018-12-21T08:54:44.110Z,992.08
2018-12-21T08:55:24.535Z,991.92
2018-12-21T08:56:05.050Z,991.91
2018-12-21T08:56:46.592Z,991.92
2018-12-21T08:57:26.986Z,991.99
2018-12-21T08:58:07.391Z,991.87
2018-12-21T08:58:48.713Z,991.85
2018-12-21T08:59:29.155Z,991.76
2018-12-21T09:00:11.288Z,991.77
2018-12-21T09:00:51.640Z,991.79
2018-12-21T09:01:32.006Z,991.76
2018-12-21T09:02:12.809Z,991.71
2018-12-21T09:02:54.790Z,991.76
2018-12-21T09:03:38.600Z,991.7
2018-12-21T09:04:19.085Z,991.74
2018-12-21T09:05:03.039Z,991.83
2018-12-21T09:05:45.435Z,991.69
2018-12-21T09:06:27.777Z,991.77
2018-12-21T09:07:09.842Z,991.86
2018-12-21T09:07:52.169Z,991.88
2018-12-21T09:08:32.594Z,991.82
2018-12-21T09:09:12.942Z,991.85
2018-12-21T09:11:28.500Z,991.85
2018-12-21T09:12:09.746Z,991.77
2018-12-21T09:12:50.164Z,991.74
2018-12-21T09:13:30.975Z,991.73
2018-12-21T09:14:11.031Z,991.72
2018-12-21T09:14:53.409Z,991.62
2018-12-21T09:15:33.706Z,991.67
2018-12-21T09:16:14.246Z,991.67
2018-12-21T09:16:54.734Z,991.72
2018-12-21T09:17:35.025Z,991.66
2018-12-21T09:18:15.566Z,991.64
2018-12-21T09:18:55.976Z,991.5
2018-12-21T09:19:36.478Z,991.51
2018-12-21T09:20:17.265Z,991.55
2018-12-21T09:20:58.113Z,991.43
2018-12-21T09:21:38.278Z,991.39
2018-12-21T09:22:18.660Z,991.45
2018-12-21T09:22:59.086Z,991.43
2018-12-21T09:23:39.669Z,991.5
2018-12-21T09:24:20.077Z,991.46
2018-12-21T09:25:00.502Z,991.47
2018-12-21T09:25:40.964Z,991.35
2018-12-21T09:26:21.340Z,991.43
2018-12-21T09:27:01.735Z,991.35
2018-12-21T09:27:42.845Z,991.34
2018-12-21T09:28:23.285Z,991.42
2018-12-21T09:29:03.801Z,991.4
2018-12-21T09:29:44.198Z,991.41
2018-12-21T09:30:24.486Z,991.44
2018-12-21T09:31:04.934Z,991.39
2018-12-21T09:31:45.316Z,991.32
2018-12-21T09:32:25.681Z,991.42
2018-12-21T09:33:06.058Z,991.36
2018-12-21T09:33:46.480Z,991.36
2018-12-21T09:34:26.876Z,991.25
2018-12-21T09:35:07.259Z,991.29
2018-12-21T09:35:49.353Z,991.31
2018-12-21T09:36:29.779Z,991.29
2018-12-21T09:37:10.176Z,991.34
2018-12-21T09:37:51.501Z,991.36
2018-12-21T09:38:32.082Z,991.27
2018-12-21T09:39:12.494Z,991.29
2018-12-21T09:39:54.875Z,991.24
2018-12-21T09:40:36.184Z,991.32
2018-12-21T09:41:16.605Z,991.32
2018-12-21T09:41:57.459Z,991.31
2018-12-21T09:42:41.144Z,991.28
2018-12-21T09:43:22.644Z,991.3
2018-12-21T09:44:04.837Z,991.28
2018-12-21T09:44:52.408Z,991.34
2018-12-21T09:45:29.011Z,991.38
2018-12-21T09:46:11.324Z,991.39
2018-12-21T09:46:52.648Z,991.37
2018-12-21T09:47:33.112Z,991.43
2018-12-21T09:48:13.514Z,991.36
2018-12-21T09:48:56.393Z,991.3
2018-12-21T09:49:36.797Z,991.44
2018-12-21T09:50:17.394Z,991.34
2018-12-21T09:50:57.743Z,991.38
2018-12-21T09:51:39.208Z,991.3
2018-12-21T09:52:19.742Z,991.19
2018-12-21T09:53:00.247Z,991.22
2018-12-21T09:53:42.472Z,991.29
2018-12-21T09:59:00.271Z,991.11
2018-12-21T09:59:41.232Z,991.1
2018-12-21T10:00:23.180Z,991.06
2018-12-21T10:01:06.555Z,991.11
2018-12-21T10:01:47.790Z,991.14
2018-12-21T10:02:35.641Z,991.13
2018-12-21T10:03:10.983Z,991.11
2018-12-21T10:03:55.801Z,991.14
2018-12-21T10:04:39.162Z,991.3
2018-12-21T10:05:20.975Z,991.25
2018-12-21T10:06:02.650Z,991.21
2018-12-21T10:06:45.533Z,991.23
2018-12-21T10:07:30.406Z,991.29
2018-12-21T10:08:14.348Z,991.16
2018-12-21T10:08:59.301Z,991.18
2018-12-21T10:09:39.716Z,991.18
2018-12-21T10:10:22.206Z,991.16
2018-12-21T10:11:04.474Z,990.98
2018-12-21T10:11:46.617Z,990.99
2018-12-21T10:12:27.372Z,991.13
2018-12-21T10:13:08.601Z,991.13
2018-12-21T10:13:50.091Z,991.21
2018-12-21T10:14:34.279Z,991.24
2018-12-21T10:15:14.710Z,991.32
2018-12-21T10:15:55.204Z,991.1
2018-12-21T10:16:35.554Z,991.22
2018-12-21T10:17:16.077Z,991.09
2018-12-21T10:18:02.504Z,991.14
2018-12-21T10:18:43.768Z,991.07
2018-12-21T10:19:25.481Z,991
2018-12-21T10:20:07.541Z,991.21
2018-12-21T10:20:50.064Z,991.16
2018-12-21T10:21:31.142Z,991.18
2018-12-21T10:22:13.415Z,991.11
2018-12-21T10:22:53.826Z,991.17
2018-12-21T10:23:34.260Z,990.84
2018-12-21T10:24:18.561Z,991.17
2018-12-21T10:24:58.070Z,991.11
2018-12-21T10:25:40.406Z,991.25
2018-12-21T10:26:22.708Z,991.11
2018-12-21T10:27:04.965Z,991.17
2018-12-21T10:27:45.300Z,991.03
2018-12-21T10:28:25.808Z,990.82
2018-12-21T10:29:06.121Z,991.13
2018-12-21T10:29:47.560Z,991.1
2018-12-21T11:13:59.973Z,991.18
2018-12-21T11:14:42.844Z,991.19
2018-12-21T11:15:24.855Z,991.15
2018-12-21T11:16:06.201Z,991.13
2018-12-21T11:16:46.633Z,991.18
2018-12-21T11:17:28.239Z,991.11
2018-12-21T11:18:11.591Z,991.13
2018-12-21T11:18:53.885Z,991.22
2018-12-21T11:19:34.660Z,991.24
2018-12-21T11:20:15.266Z,991.33
2018-12-21T11:20:57.953Z,991.21
2018-12-21T11:21:38.261Z,991.21
2018-12-21T11:22:18.525Z,991.31
2018-12-21T11:22:59.027Z,991.22
2018-12-21T11:23:39.420Z,990.97
2018-12-21T11:24:19.968Z,991.27
2018-12-21T11:25:02.394Z,991.18
2018-12-21T11:25:42.733Z,991.22